• Join FlightAware (Why Join?)
  • Login
  • US Flag 
12:46PM EST


 

Airport Tracker/Info


-or-


 

Live Flight TrackerFlight Track Log ✈ N749SS ✈ 15-Aug-2014 ✈ KAPF - KSNA

Flight Track Log - Related Links

Times and Time Zones

All times are in EDT time to prevent confusion due to time zone crossing. See the N749SS flight status page for this flight to view local times or setup timezone preferences in your user account.

Time Position Orientation Groundspeed Altitude Reporting Facility
EDT Latitude Longitude Course Direction KTS MPH feet Rate Location/Type
12:53PM 26.1336 -81.8494 305° West 205 236 3,900  Level Miami Center
12:54PM 26.1308 -81.9247 268° West 245 282 7,100 3,408 Climbing Miami Center
12:55PM 26.1217 -82.0161 264° West 272 313 11,000 3,097 Climbing Miami Center
12:56PM 26.1119 -82.1086 263° West 303 349 13,500 2,516 Climbing Miami Center
12:57PM 26.1125 -82.2214 270° West 342 394 16,200 2,419 Climbing Miami Center
12:58PM 26.1575 -82.4454 305° West  Level FlightAware Approximate
12:58PM 26.1214 -82.3303 275° West 358 412 18,500  Level Miami Center
12:59PM 26.1261 -82.4453 273° West 370 426 20,900 2,129 Climbing Miami Center
01:00PM 26.1289 -82.5581 272° West 374 430 22,900 1,548 Climbing Miami Center
01:01PM 26.1314 -82.6847 271° West 402 463 24,100 1,742 Climbing Miami Center
01:02PM 26.1353 -82.8417 272° West 418 481 26,500 2,112 Climbing Miami Center
01:03PM 26.1406 -82.9717 273° West 419 482 28,500 1,632 Climbing Miami Center
01:04PM 26.1556 -83.1019 277° West 420 483 29,900 1,016 Climbing Miami Center
01:05PM 26.1792 -83.2392 281° West 447 514 30,600 1,161 Climbing Miami Center
01:06PM 26.2039 -83.3783 281° West 456 525 32,300 1,645 Climbing Miami Center
01:07PM 26.2381 -83.5117 286° West 456 525 34,000 1,984 Climbing Miami Center
01:08PM 26.3083 -83.6569 298° West 445 512 36,400 2,129 Climbing Miami Center
01:09PM 26.3653 -83.7761 298° West 441 507 38,400 1,694 Climbing Miami Center
01:10PM 26.4200 -83.8878 299° West 420 483 39,900 774 Climbing Miami Center
01:11PM 26.4753 -84.0047 298° West 420 483 40,000 48 Climbing Miami Center
01:12PM 26.5322 -84.1250 298° West 433 498 40,000  Level Miami Center
01:13PM 26.5889 -84.2453 298° West 434 499 40,000  Level Miami Center
01:14PM 26.6464 -84.3956 293° West 436 502 40,000  Level Miami Center
01:15PM 26.6950 -84.5217 293° West 437 503 40,000  Level Miami Center
01:16PM 26.7525 -84.6400 299° West 437 503 40,000  Level Miami Center
01:18PM 26.8200 -84.7379 308° West  Level FlightAware Approximate
01:18PM 26.8097 -84.7600 308° West 437 503 40,000  Level Miami Center
01:19PM 26.8658 -84.8792 298° West 437 503 40,000  Level Miami Center
01:20PM 26.9225 -84.9997 298° West 435 501 40,000  Level Miami Center
01:21PM 26.9906 -85.1442 298° West 435 501 40,000  Level Miami Center
01:22PM 27.0408 -85.2664 295° West 434 499 40,000  Level Houston Center
01:23PM 27.0781 -85.3964 288° West 436 502 40,000  Level Houston Center
01:24PM 27.1208 -85.5286 290° West 435 501 40,000  Level Houston Center
01:25PM 27.1586 -85.6644 287° West 437 503 40,000  Level Jacksonville Center
01:26PM 27.2017 -85.7961 290° West 448 516 40,000  Level Jacksonville Center
01:27PM 27.2406 -85.9161 290° West 442 509 40,000  Level Jacksonville Center
01:28PM 27.2811 -86.0481 289° West 441 507 40,000  Level Jacksonville Center
01:29PM 27.3219 -86.1731 290° West 434 499 40,000  Level Jacksonville Center
01:30PM 27.3622 -86.3050 289° West 439 505 40,000  Level Jacksonville Center
01:31PM 27.4025 -86.4372 289° West 450 518 40,000  Level Jacksonville Center
01:32PM 27.4408 -86.5578 290° West 443 510 40,000  Level Jacksonville Center
01:33PM 27.4844 -86.7019 289° West 451 519 40,000  Level Jacksonville Center
01:34PM 27.5225 -86.8250 289° West 433 498 40,000  Level Jacksonville Center
01:35PM 27.5622 -86.9575 289° West 431 496 40,000  Level Jacksonville Center
01:36PM 27.6000 -87.0853 288° West 436 502 40,000  Level Jacksonville Center
01:37PM 27.6433 -87.2231 290° West 436 502 40,000  Level Jacksonville Center
01:37PM 27.6611 -87.2817 289° West 431 496 40,000  Level Houston Center
01:38PM 27.6997 -87.4086 289° West 431 496 40,000  Level Houston Center
01:39PM 27.7381 -87.5375 289° West 431 496 40,000  Level Houston Center
01:40PM 27.7772 -87.6681 289° West 433 498 40,000  Level Houston Center
01:41PM 27.8153 -87.7975 288° West 434 499 40,000  Level Houston Center
01:42PM 27.8561 -87.9358 288° West 433 498 40,000  Level Houston Center
01:44PM 27.8989 -88.0800 289° West 433 498 40,000  Level Houston Center
01:45PM 27.9317 -88.1936 288° West 433 498 40,000  Level Houston Center
01:46PM 27.9761 -88.3467 288° West 430 495 40,000  Level Houston Center
01:47PM 28.0133 -88.4744 288° West 430 495 40,000  Level Houston Center
01:48PM 28.0500 -88.6036 288° West 430 495 40,000  Level Houston Center
01:49PM 28.0872 -88.7297 289° West 429 494 40,000  Level Houston Center
01:50PM 28.1242 -88.8567 288° West 426 490 40,000  Level Houston Center
01:51PM 28.1600 -88.9847 288° West 426 490 40,000  Level Houston Center
01:52PM 28.2031 -89.1386 288° West 426 490 40,000  Level Houston Center
01:53PM 28.2400 -89.2658 288° West 426 490 40,000  Level Houston Center
01:54PM 28.2858 -89.3925 292° West 431 496 40,000  Level Houston Center
01:55PM 28.3331 -89.5194 293° West 432 497 40,000  Level Houston Center
01:56PM 28.3867 -89.6442 296° West 434 499 40,000  Level Houston Center
01:57PM 28.4381 -89.7708 295° West 438 504 40,000  Level Houston Center
01:58PM 28.5028 -89.9206 296° West 439 505 40,000  Level Houston Center
01:59PM 28.5575 -90.0442 297° West 439 505 40,000  Level Houston Center
02:00PM 28.6125 -90.1683 297° West 439 505 40,000  Level Houston Center
02:01PM 28.6647 -90.2947 295° West 439 505 40,000  Level Houston Center
02:02PM 28.7175 -90.4197 296° West 439 505 40,000  Level Houston Center
02:03PM 28.7689 -90.5467 295° West 439 505 40,000  Level Houston Center
02:04PM 28.8311 -90.7011 295° West 440 506 40,000  Level Houston Center
02:05PM 28.8822 -90.8283 295° West 442 509 40,000  Level Houston Center
02:06PM 28.9319 -90.9586 294° West 444 511 40,000  Level Houston Center
02:07PM 28.9817 -91.0894 294° West 446 513 40,000  Level Houston Center
02:08PM 29.0297 -91.2211 293° West 448 516 40,000  Level Houston Center
02:09PM 29.0644 -91.3606 286° West 454 522 40,000  Level Houston Center
02:10PM 29.1050 -91.5286 285° West 456 525 40,000  Level Houston Center
02:11PM 29.1397 -91.6692 286° West 459 528 40,000  Level Houston Center
02:13PM 29.1736 -91.8067 286° West 461 531 40,000  Level Houston Center
02:14PM 29.2075 -91.9478 285° West 461 531 40,000  Level Houston Center
02:15PM 29.2417 -92.0906 285° West 461 531 40,000  Level Houston Center
02:16PM 29.2833 -92.2603 286° West 463 533 40,000  Level Houston Center
02:17PM 29.3164 -92.4036 285° West 463 533 40,000  Level Houston Center
02:18PM 29.3508 -92.5453 286° West 463 533 40,000  Level Houston Center
02:19PM 29.3847 -92.6892 285° West 464 534 40,000  Level Houston Center
02:20PM 29.4186 -92.8322 285° West 464 534 40,000  Level Houston Center
02:21PM 29.4517 -92.9756 285° West 464 534 40,000  Level Houston Center
02:22PM 29.4922 -93.1467 285° West 464 534 40,000  Level Houston Center
02:23PM 29.5253 -93.2883 285° West 463 533 40,000  Level Houston Center
02:24PM 29.5583 -93.4333 285° West 464 534 40,000  Level Houston Center
02:25PM 29.5914 -93.5764 285° West 464 534 40,000  Level Houston Center
02:26PM 29.6244 -93.7186 285° West 462 532 40,000  Level Houston Center
02:27PM 29.6564 -93.8614 284° West 461 531 40,000  Level Houston Center
02:28PM 29.6956 -94.0333 285° West 462 532 40,000  Level Houston Center
02:29PM 29.7275 -94.1767 284° West 461 531 40,000  Level Houston Center
02:30PM 29.7608 -94.3253 285° West 462 532 40,000  Level Houston Center
02:31PM 29.7922 -94.4683 284° West 462 532 40,000  Level Houston Center
02:32PM 29.8236 -94.6119 284° West 462 532 40,000  Level Houston Center
02:33PM 29.8544 -94.7525 284° West 461 531 40,000  Level Houston Center
02:34PM 29.8911 -94.9225 284° West 461 531 40,000  Level Houston Center
02:35PM 29.9225 -95.0633 284° West 461 531 40,000  Level Houston Center
02:36PM 29.9533 -95.2042 284° West 461 531 40,000  Level Houston Center
02:37PM 29.9831 -95.3458 284° West 461 531 40,000  Level Houston Center
02:38PM 30.0122 -95.4869 283° West 460 529 40,000  Level Houston Center
02:39PM 30.0483 -95.6578 284° West 460 529 40,000  Level Houston Center
02:40PM 30.0783 -95.7986 284° West 459 528 40,000  Level Houston Center
02:42PM 30.1086 -95.9419 284° West 459 528 40,000  Level Houston Center
02:43PM 30.1408 -96.0992 283° West 459 528 40,000  Level Houston Center
02:44PM 30.1694 -96.2428 283° West 459 528 40,000  Level Houston Center
02:46PM 30.2281 -96.5275 283° West 458 527 40,000  Level Houston Center
02:47PM 30.2581 -96.6714 284° West 458 527 40,000  Level Houston Center
02:48PM 30.2869 -96.8136 283° West 458 527 40,000  Level Houston Center
02:49PM 30.3200 -96.9858 283° West 455 524 40,000  Level Houston Center
02:50PM 30.3486 -97.1306 283° West 455 524 40,000  Level Houston Center
02:51PM 30.3769 -97.2744 283° West 456 525 40,000  Level Houston Center
02:52PM 30.4044 -97.4164 283° West 454 522 40,000  Level Houston Center
02:53PM 30.4328 -97.5597 283° West 454 522 40,000  Level Houston Center
02:54PM 30.4603 -97.7019 283° West 453 521 40,000  Level Houston Center
02:55PM 30.4878 -97.8444 283° West 452 520 40,000  Level Houston Center
02:56PM 30.5208 -98.0139 283° West 449 517 40,000  Level Houston Center
02:57PM 30.5478 -98.1528 283° West 448 516 40,000  Level Houston Center
02:58PM 30.5747 -98.2953 282° West 448 516 40,000  Level Houston Center
02:59PM 30.6022 -98.4353 283° West 448 516 40,000  Level Houston Center
03:00PM 30.6275 -98.5772 282° West 448 516 40,000  Level Houston Center
03:01PM 30.6539 -98.7175 282° West 447 514 40,000  Level Houston Center
03:02PM 30.6856 -98.8864 282° West 447 514 40,000  Level Houston Center
03:03PM 30.7111 -99.0283 282° West 447 514 40,000  Level Houston Center
03:04PM 30.7369 -99.1642 283° West 447 514 40,000  Level Houston Center
03:05PM 30.7614 -99.3050 281° West 447 514 40,000  Level Houston Center
03:06PM 30.7919 -99.4736 282° West 447 514 40,000  Level Houston Center
03:07PM 30.8161 -99.6131 281° West 444 511 40,000  Level Houston Center
03:08PM 30.8422 -99.7528 282° West 444 511 40,000  Level Houston Center
03:09PM 30.8667 -99.8931 282° West 444 511 40,000  Level Houston Center
03:11PM 30.8906 -100.0325 281° West 444 511 40,000  Level Houston Center
03:12PM 30.9192 -100.2003 281° West 444 511 40,000  Level Houston Center
03:13PM 30.9439 -100.3397 282° West 443 510 40,000  Level Houston Center
03:14PM 30.9681 -100.4792 281° West 443 510 40,000  Level Houston Center
03:15PM 30.9908 -100.6194 281° West 443 510 40,000  Level Houston Center
03:16PM 31.0153 -100.7600 282° West 443 510 40,000  Level Houston Center
03:17PM 31.0428 -100.9289 281° West 443 510 40,000  Level Houston Center
03:18PM 31.0664 -101.0694 281° West 443 510 40,000  Level Houston Center
03:19PM 31.0903 -101.2103 281° West 443 510 40,000  Level Houston Center
03:20PM 31.1136 -101.3556 281° West 443 510 40,000  Level Houston Center
03:21PM 31.1361 -101.4975 281° West 443 510 40,000  Level Houston Center
03:22PM 31.1589 -101.6392 281° West 443 510 40,000  Level Houston Center
03:23PM 31.1817 -101.7800 281° West 443 510 40,000  Level Houston Center
03:24PM 31.2083 -101.9489 281° West 443 510 40,000  Level Houston Center
03:25PM 31.2308 -102.0897 281° West 443 510 40,000  Level Houston Center
03:26PM 31.2511 -102.2328 279° West 446 513 40,000  Level Albuquerque Center
03:27PM 31.2725 -102.3736 280° West 445 512 40,000  Level Albuquerque Center
03:28PM 31.2972 -102.5317 280° West 444 511 40,000  Level Albuquerque Center
03:29PM 31.3181 -102.6731 280° West 443 510 40,000  Level Albuquerque Center
03:30PM 31.3403 -102.8128 281° West 441 507 40,000  Level Albuquerque Center
03:31PM 31.3644 -102.9800 280° West 440 506 40,000  Level Albuquerque Center
03:32PM 31.3858 -103.1197 280° West 440 506 40,000  Level Albuquerque Center
03:34PM 31.4267 -103.3975 280° West 437 503 40,000  Level Albuquerque Center
03:35PM 31.4469 -103.5353 280° West 436 502 40,000  Level Albuquerque Center
03:36PM 31.4656 -103.6731 279° West 433 498 40,000  Level Albuquerque Center
03:37PM 31.4872 -103.8169 280° West 432 497 40,000  Level Albuquerque Center
03:39PM 31.5072 -103.9550 280° West 432 497 40,000  Level Albuquerque Center
03:40PM 31.5308 -104.1197 280° West 432 497 40,000  Level Albuquerque Center
03:41PM 31.5506 -104.2572 280° West 432 497 40,000  Level Albuquerque Center
03:42PM 31.5692 -104.3947 279° West 431 496 40,000  Level Albuquerque Center
03:43PM 31.5886 -104.5311 280° West 431 496 40,000  Level Albuquerque Center
03:44PM 31.6072 -104.6681 279° West 430 495 40,000  Level Albuquerque Center
03:45PM 31.6289 -104.8328 279° West 430 495 40,000  Level Albuquerque Center
03:46PM 31.6483 -104.9700 279° West 430 495 40,000  Level Albuquerque Center
03:47PM 31.6672 -105.1069 279° West 429 494 40,000  Level Albuquerque Center
03:48PM 31.6844 -105.2461 278° West 430 495 40,000  Level Albuquerque Center
03:49PM 31.7019 -105.3806 279° West 427 491 40,000  Level Albuquerque Center
03:50PM 31.7231 -105.5428 279° West 424 488 40,000  Level Albuquerque Center
03:51PM 31.7406 -105.6778 279° West 423 487 40,000  Level Albuquerque Center
03:54PM 31.7906 -106.0756 278° West 410 472 40,000  Level Albuquerque Center
03:55PM 31.8114 -106.2314 279° West 405 466 40,000  Level Albuquerque Center
03:56PM 31.8344 -106.3667 281° West 418 481 40,000  Level Albuquerque Center
03:57PM 31.8683 -106.4931 288° West 414 476 40,000  Level Albuquerque Center
03:58PM 31.9031 -106.6308 287° West 412 474 40,000  Level Albuquerque Center
03:59PM 31.9344 -106.7586 286° West 412 474 40,000  Level Albuquerque Center
04:00PM 31.9661 -106.8881 286° West 411 473 40,000  Level Albuquerque Center
04:01PM 31.9969 -107.0192 286° West 411 473 40,000  Level Albuquerque Center
04:02PM 32.0281 -107.1517 286° West 413 475 40,000  Level Albuquerque Center
04:03PM 32.0661 -107.3114 286° West 415 478 40,000  Level Albuquerque Center
04:04PM 32.0975 -107.4433 286° West 415 478 40,000  Level Albuquerque Center
04:05PM 32.1281 -107.5753 285° West 415 478 40,000  Level Albuquerque Center
04:06PM 32.1594 -107.7067 286° West 415 478 40,000  Level Albuquerque Center
04:07PM 32.1892 -107.8394 285° West 415 478 40,000  Level Albuquerque Center
04:09PM 32.2206 -107.9714 286° West 415 478 40,000  Level Albuquerque Center
04:10PM 32.2519 -108.1028 286° West 415 478 40,000  Level Albuquerque Center
04:11PM 32.2872 -108.2592 285° West 415 478 40,000  Level Albuquerque Center
04:12PM 32.3175 -108.3900 285° West 415 478 40,000  Level Albuquerque Center
04:13PM 32.3456 -108.5153 285° West 414 476 40,000  Level Albuquerque Center
04:14PM 32.3747 -108.6447 285° West 413 475 40,000  Level Albuquerque Center
04:15PM 32.4047 -108.7750 285° West 411 473 40,000  Level Albuquerque Center
04:16PM 32.4567 -108.9261 292° West 411 473 40,000  Level Albuquerque Center
04:17PM 32.5044 -109.0506 295° West 411 473 40,000  Level Albuquerque Center
04:18PM 32.5506 -109.1764 294° West 411 473 40,000  Level Albuquerque Center
04:19PM 32.5981 -109.3022 294° West 413 475 40,000  Level Albuquerque Center
04:20PM 32.6383 -109.4297 291° West 414 476 40,000  Level Albuquerque Center
04:21PM 32.6811 -109.5575 292° West 417 480 40,000  Level Albuquerque Center
04:22PM 32.7294 -109.6828 295° West 416 479 40,000  Level Albuquerque Center
04:23PM 32.7622 -109.8144 287° West 416 479 40,000  Level Albuquerque Center
04:24PM 32.8000 -109.9706 286° West 413 475 40,000  Level Albuquerque Center
04:25PM 32.8319 -110.0997 286° West 413 475 40,000  Level Albuquerque Center
04:26PM 32.8631 -110.2306 286° West 412 474 40,000  Level Albuquerque Center
04:27PM 32.8939 -110.3592 286° West 411 473 40,000  Level Albuquerque Center
04:28PM 32.9256 -110.4861 287° West 406 467 40,000  Level Albuquerque Center
04:29PM 32.9547 -110.6164 285° West 406 467 40,000  Level Albuquerque Center
04:30PM 32.9881 -110.7561 286° West 406 467 40,000  Level Albuquerque Center
04:31PM 33.0181 -110.8850 286° West 406 467 40,000  Level Albuquerque Center
04:32PM 33.0547 -111.0375 286° West 399 459 40,000  Level Albuquerque Center
04:33PM 33.0847 -111.1669 285° West 400 460 40,000  Level Albuquerque Center
04:34PM 33.1144 -111.2981 285° West 407 468 40,000  Level Albuquerque Center
04:35PM 33.1444 -111.4261 286° West 401 461 40,000  Level Albuquerque Center
04:36PM 33.1733 -111.5564 285° West 402 463 40,000  Level Albuquerque Center
04:37PM 33.2025 -111.6858 285° West 402 463 40,000  Level Albuquerque Center
04:39PM 33.2381 -111.8422 285° West 403 464 40,000  Level Albuquerque Center
04:40PM 33.2667 -111.9725 285° West 403 464 40,000  Level Albuquerque Center
04:41PM 33.2956 -112.1025 285° West 403 464 40,000  Level Albuquerque Center
04:42PM 33.3247 -112.2331 285° West 403 464 40,000  Level Albuquerque Center
04:43PM 33.3536 -112.3667 285° West 408 470 40,000  Level Albuquerque Center
04:44PM 33.3822 -112.4981 285° West 408 470 40,000  Level Albuquerque Center
04:45PM 33.4133 -112.6375 285° West 408 470 40,000 -339 Level Albuquerque Center
04:46PM 33.4411 -112.7692 284° West 409 471 39,300 -1,016 Descending Albuquerque Center
04:47PM 33.4697 -112.9331 282° West 417 480 37,900 -1,258 Descending Albuquerque Center
04:48PM 33.4864 -113.0756 278° West 429 494 36,700 -1,161 Descending Albuquerque Center
04:49PM 33.5053 -113.2211 279° West 439 505 35,500 -1,113 Descending Albuquerque Center
04:50PM 33.5244 -113.3683 279° West 444 511 34,400 -726 Descending Albuquerque Center
04:51PM 33.5419 -113.5169 278° West 449 517 34,000 -194 Descending Albuquerque Center
04:52PM 33.5603 -113.6647 279° West 450 518 34,000  Level Albuquerque Center
04:53PM 33.5839 -113.8458 279° West 455 524 34,000  Level Albuquerque Center
04:54PM 33.6011 -113.9939 278° West 455 524 34,000  Level Albuquerque Center
04:55PM 33.6178 -114.1444 278° West 455 524 34,000  Level Albuquerque Center
04:56PM 33.6333 -114.2653 279° West 456 525 34,000  Level Los Angeles Center
04:57PM 33.6503 -114.4153 278° West 456 525 34,000  Level Los Angeles Center
04:58PM 33.6739 -114.5972 279° West 457 526 34,000  Level Los Angeles Center
04:59PM 33.6894 -114.7472 277° West 457 526 34,000  Level Los Angeles Center
05:00PM 33.7067 -114.8978 278° West 457 526 34,000  Level Los Angeles Center
05:01PM 33.7233 -115.0469 278° West 457 526 34,000  Level Los Angeles Center
05:02PM 33.7403 -115.1964 278° West 457 526 34,000  Level Los Angeles Center
05:03PM 33.7603 -115.3758 278° West 456 525 34,000  Level Los Angeles Center
05:04PM 33.7764 -115.5233 278° West 453 521 34,000  Level Los Angeles Center
05:05PM 33.7919 -115.6703 277° West 451 519 34,000  Level Los Angeles Center
05:06PM 33.8086 -115.8189 278° West 448 516 34,000  Level Los Angeles Center
05:07PM 33.8233 -115.9686 277° West 451 519 34,000 -290 Level Los Angeles Center
05:08PM 33.8425 -116.1475 277° West 451 519 33,400 -1,403 Descending Los Angeles Center
05:09PM 33.8572 -116.3003 277° West 455 524 31,100 -3,360 Descending Los Angeles Center
05:10PM 33.8725 -116.4503 277° West 455 524 26,400 -5,280 Descending Los Angeles Center
05:11PM 33.8792 -116.6261 273° West 459 528 20,100 -5,032 Descending Los Angeles Center
05:13PM 33.8856 -116.7678 273° West 433 498 16,000 -3,145 Descending Los Angeles Center
05:14PM 33.8761 -116.9069 265° West 401 461 13,600 -1,887 Descending Los Angeles Center
05:15PM 33.8544 -117.0431 259° West 393 452 12,100 -1,485 Descending Los Angeles Center
05:15PM 33.8333 -117.1333 254° West 384 442 11,100 -1,455 Descending Southern California TRACON
05:16PM 33.8167 -117.2333 259° West 310 357 9,700 -1,450 Descending Southern California TRACON
05:17PM 33.8167 -117.3167 270° West 274 315 8,200 -850 Descending Southern California TRACON
05:18PM 33.8000 -117.4000 256° West 261 300 8,000 -133 Descending Southern California TRACON
05:19PM 33.7881 -117.4467 253° West 268 308 8,000 -323 Level Los Angeles Center
05:20PM 33.7792 -117.5186 262° West 233 268 7,500 -672 Descending Los Angeles Center
05:21PM 33.7808 -117.5875 272° West 213 245 6,600 -581 Descending Los Angeles Center
05:22PM 33.8000 -117.6450 292° West 196 226 6,300 -629 Descending Los Angeles Center
05:23PM 33.8231 -117.7022 296° West 192 221 5,300 -1,056 Descending Los Angeles Center
05:24PM 33.8314 -117.7728 278° West 189 217 4,100 -1,392 Descending Los Angeles Center
05:25PM 33.7881 -117.7964 204° Southwest 181 208 2,400 -1,210 Descending Los Angeles Center
05:26PM 33.7494 -117.8217 209° Southwest 169 194 1,600 -774 Descending Los Angeles Center
05:27PM 33.7150 -117.8428 207° Southwest 154 177 800 -726 Descending Los Angeles Center
05:28PM 33.6822 -117.8633 208° Southwest 143 165 100 -677 Descending Los Angeles Center
05:30PM 33.6757 -117.8682 132° Southeast  Level Estimated